sensor_id;sensor_type;location;lat;lon;timestamp;P1;durP1;ratioP1;P2;durP2;ratioP2
62707;SDS011;48769;51.624;5.886;2022-10-16T00:02:15;12.48;;;7.75;;
62707;SDS011;48769;51.624;5.886;2022-10-16T00:04:41;13.02;;;7.93;;
62707;SDS011;48769;51.624;5.886;2022-10-16T00:07:06;9.88;;;7.82;;
62707;SDS011;48769;51.624;5.886;2022-10-16T00:09:31;11.20;;;7.97;;
62707;SDS011;48769;51.624;5.886;2022-10-16T00:11:57;15.75;;;7.72;;
62707;SDS011;48769;51.624;5.886;2022-10-16T00:14:22;12.80;;;7.40;;
62707;SDS011;48769;51.624;5.886;2022-10-16T00:16:47;15.80;;;7.78;;
62707;SDS011;48769;51.624;5.886;2022-10-16T00:19:13;10.07;;;7.38;;
62707;SDS011;48769;51.624;5.886;2022-10-16T00:21:38;12.80;;;6.95;;
62707;SDS011;48769;51.624;5.886;2022-10-16T00:24:05;11.63;;;7.07;;
62707;SDS011;48769;51.624;5.886;2022-10-16T00:26:33;10.63;;;7.07;;
62707;SDS011;48769;51.624;5.886;2022-10-16T00:28:59;11.15;;;6.80;;
62707;SDS011;48769;51.624;5.886;2022-10-16T00:31:25;15.10;;;8.32;;
62707;SDS011;48769;51.624;5.886;2022-10-16T00:33:51;12.05;;;7.57;;
62707;SDS011;48769;51.624;5.886;2022-10-16T00:36:18;10.63;;;7.38;;
62707;SDS011;48769;51.624;5.886;2022-10-16T00:38:45;11.48;;;6.72;;
62707;SDS011;48769;51.624;5.886;2022-10-16T00:41:15;9.88;;;7.05;;
62707;SDS011;48769;51.624;5.886;2022-10-16T00:43:46;10.80;;;6.68;;
62707;SDS011;48769;51.624;5.886;2022-10-16T00:51:40;12.07;;;6.82;;
62707;SDS011;48769;51.624;5.886;2022-10-16T00:56:56;8.40;;;6.05;;
62707;SDS011;48769;51.624;5.886;2022-10-16T00:59:28;10.68;;;6.35;;
62707;SDS011;48769;51.624;5.886;2022-10-16T01:01:55;12.32;;;7.05;;
62707;SDS011;48769;51.624;5.886;2022-10-16T01:04:22;11.27;;;6.90;;
62707;SDS011;48769;51.624;5.886;2022-10-16T01:06:57;8.52;;;6.53;;
62707;SDS011;48769;51.624;5.886;2022-10-16T01:09:47;12.20;;;6.75;;
62707;SDS011;48769;51.624;5.886;2022-10-16T01:12:38;12.10;;;6.07;;
62707;SDS011;48769;51.624;5.886;2022-10-16T01:18:37;12.18;;;6.28;;
62707;SDS011;48769;51.624;5.886;2022-10-16T01:20:50;11.23;;;6.30;;
62707;SDS011;48769;51.624;5.886;2022-10-16T01:28:31;10.30;;;6.25;;
62707;SDS011;48769;51.624;5.886;2022-10-16T01:31:01;10.05;;;6.00;;
62707;SDS011;48769;51.624;5.886;2022-10-16T01:33:47;10.77;;;6.35;;
62707;SDS011;48769;51.624;5.886;2022-10-16T01:36:21;12.13;;;6.70;;
62707;SDS011;48769;51.624;5.886;2022-10-16T01:38:51;10.00;;;6.28;;
62707;SDS011;48769;51.624;5.886;2022-10-16T01:41:38;14.57;;;7.05;;
62707;SDS011;48769;51.624;5.886;2022-10-16T01:44:09;10.52;;;6.18;;
62707;SDS011;48769;51.624;5.886;2022-10-16T01:46:41;10.13;;;6.22;;
62707;SDS011;48769;51.624;5.886;2022-10-16T01:49:09;11.80;;;6.55;;
62707;SDS011;48769;51.624;5.886;2022-10-16T01:51:36;8.00;;;5.93;;
62707;SDS011;48769;51.624;5.886;2022-10-16T01:54:02;11.10;;;5.72;;
62707;SDS011;48769;51.624;5.886;2022-10-16T01:56:33;8.82;;;6.30;;
62707;SDS011;48769;51.624;5.886;2022-10-16T01:59:07;7.40;;;6.00;;
62707;SDS011;48769;51.624;5.886;2022-10-16T02:01:36;10.93;;;5.95;;
62707;SDS011;48769;51.624;5.886;2022-10-16T02:04:13;8.38;;;6.03;;
62707;SDS011;48769;51.624;5.886;2022-10-16T02:06:46;7.57;;;5.80;;
62707;SDS011;48769;51.624;5.886;2022-10-16T02:09:11;13.70;;;6.53;;
62707;SDS011;48769;51.624;5.886;2022-10-16T02:11:37;9.63;;;6.07;;
62707;SDS011;48769;51.624;5.886;2022-10-16T02:14:03;7.80;;;6.03;;
62707;SDS011;48769;51.624;5.886;2022-10-16T02:16:34;16.63;;;7.72;;
62707;SDS011;48769;51.624;5.886;2022-10-16T02:19:02;9.15;;;5.57;;
62707;SDS011;48769;51.624;5.886;2022-10-16T02:21:29;9.65;;;5.38;;
62707;SDS011;48769;51.624;5.886;2022-10-16T02:24:08;5.78;;;4.90;;
62707;SDS011;48769;51.624;5.886;2022-10-16T02:26:42;6.45;;;4.90;;
62707;SDS011;48769;51.624;5.886;2022-10-16T02:29:18;7.20;;;4.95;;
62707;SDS011;48769;51.624;5.886;2022-10-16T02:31:50;6.80;;;5.18;;
62707;SDS011;48769;51.624;5.886;2022-10-16T02:34:20;7.32;;;5.35;;
62707;SDS011;48769;51.624;5.886;2022-10-16T02:36:47;7.75;;;4.65;;
62707;SDS011;48769;51.624;5.886;2022-10-16T02:39:15;8.43;;;5.40;;
62707;SDS011;48769;51.624;5.886;2022-10-16T02:41:42;8.45;;;5.10;;
62707;SDS011;48769;51.624;5.886;2022-10-16T02:44:08;9.93;;;5.13;;
62707;SDS011;48769;51.624;5.886;2022-10-16T02:46:33;9.07;;;4.75;;
62707;SDS011;48769;51.624;5.886;2022-10-16T02:48:58;5.47;;;4.55;;
62707;SDS011;48769;51.624;5.886;2022-10-16T02:51:24;5.50;;;5.00;;
62707;SDS011;48769;51.624;5.886;2022-10-16T02:53:49;6.18;;;4.80;;
62707;SDS011;48769;51.624;5.886;2022-10-16T02:56:14;7.82;;;4.30;;
62707;SDS011;48769;51.624;5.886;2022-10-16T02:58:40;7.47;;;4.60;;
62707;SDS011;48769;51.624;5.886;2022-10-16T03:01:05;8.60;;;4.40;;
62707;SDS011;48769;51.624;5.886;2022-10-16T03:03:30;7.30;;;3.88;;
62707;SDS011;48769;51.624;5.886;2022-10-16T03:05:56;8.98;;;4.35;;
62707;SDS011;48769;51.624;5.886;2022-10-16T03:08:21;5.97;;;4.75;;
62707;SDS011;48769;51.624;5.886;2022-10-16T03:10:49;7.03;;;5.28;;
62707;SDS011;48769;51.624;5.886;2022-10-16T03:13:15;5.47;;;4.03;;
62707;SDS011;48769;51.624;5.886;2022-10-16T03:15:40;7.60;;;4.72;;
62707;SDS011;48769;51.624;5.886;2022-10-16T03:18:06;7.20;;;4.88;;
62707;SDS011;48769;51.624;5.886;2022-10-16T03:20:31;7.45;;;4.20;;
62707;SDS011;48769;51.624;5.886;2022-10-16T03:22:57;6.47;;;4.05;;
62707;SDS011;48769;51.624;5.886;2022-10-16T03:25:23;7.20;;;4.35;;
62707;SDS011;48769;51.624;5.886;2022-10-16T03:27:48;4.78;;;4.22;;
62707;SDS011;48769;51.624;5.886;2022-10-16T03:30:14;5.93;;;4.20;;
62707;SDS011;48769;51.624;5.886;2022-10-16T03:32:39;9.02;;;4.25;;
62707;SDS011;48769;51.624;5.886;2022-10-16T03:35:04;8.63;;;3.92;;
62707;SDS011;48769;51.624;5.886;2022-10-16T03:37:30;6.80;;;4.03;;
62707;SDS011;48769;51.624;5.886;2022-10-16T03:39:55;4.70;;;4.00;;
62707;SDS011;48769;51.624;5.886;2022-10-16T03:42:21;7.38;;;5.13;;
62707;SDS011;48769;51.624;5.886;2022-10-16T03:44:46;6.32;;;4.18;;
62707;SDS011;48769;51.624;5.886;2022-10-16T03:47:11;6.57;;;4.00;;
62707;SDS011;48769;51.624;5.886;2022-10-16T03:49:37;4.18;;;3.78;;
62707;SDS011;48769;51.624;5.886;2022-10-16T03:52:03;5.55;;;4.03;;
62707;SDS011;48769;51.624;5.886;2022-10-16T03:54:28;4.82;;;3.72;;
62707;SDS011;48769;51.624;5.886;2022-10-16T03:56:54;4.38;;;3.83;;
62707;SDS011;48769;51.624;5.886;2022-10-16T03:59:19;5.30;;;4.03;;
62707;SDS011;48769;51.624;5.886;2022-10-16T04:01:44;6.70;;;4.32;;
62707;SDS011;48769;51.624;5.886;2022-10-16T04:04:10;6.35;;;4.32;;
62707;SDS011;48769;51.624;5.886;2022-10-16T04:06:35;5.93;;;3.75;;
62707;SDS011;48769;51.624;5.886;2022-10-16T04:09:00;5.68;;;4.20;;
62707;SDS011;48769;51.624;5.886;2022-10-16T04:11:26;4.97;;;3.83;;
62707;SDS011;48769;51.624;5.886;2022-10-16T04:13:51;6.38;;;4.47;;
62707;SDS011;48769;51.624;5.886;2022-10-16T04:16:16;4.03;;;3.63;;
62707;SDS011;48769;51.624;5.886;2022-10-16T04:18:42;6.57;;;3.88;;
62707;SDS011;48769;51.624;5.886;2022-10-16T04:21:07;4.30;;;3.92;;
62707;SDS011;48769;51.624;5.886;2022-10-16T04:23:33;5.15;;;3.47;;
62707;SDS011;48769;51.624;5.886;2022-10-16T04:25:58;6.47;;;3.55;;
62707;SDS011;48769;51.624;5.886;2022-10-16T04:28:24;4.03;;;3.60;;
62707;SDS011;48769;51.624;5.886;2022-10-16T04:30:50;4.28;;;3.67;;
62707;SDS011;48769;51.624;5.886;2022-10-16T04:33:15;5.65;;;3.20;;
62707;SDS011;48769;51.624;5.886;2022-10-16T04:35:41;5.53;;;3.50;;
62707;SDS011;48769;51.624;5.886;2022-10-16T04:38:06;7.85;;;3.70;;
62707;SDS011;48769;51.624;5.886;2022-10-16T04:40:31;4.50;;;3.55;;
62707;SDS011;48769;51.624;5.886;2022-10-16T04:43:02;4.50;;;3.17;;
62707;SDS011;48769;51.624;5.886;2022-10-16T04:45:28;4.03;;;3.55;;
62707;SDS011;48769;51.624;5.886;2022-10-16T04:47:56;6.32;;;3.40;;
62707;SDS011;48769;51.624;5.886;2022-10-16T04:50:22;6.65;;;3.67;;
62707;SDS011;48769;51.624;5.886;2022-10-16T04:52:48;6.38;;;3.35;;
62707;SDS011;48769;51.624;5.886;2022-10-16T04:55:13;5.82;;;3.15;;
62707;SDS011;48769;51.624;5.886;2022-10-16T04:57:38;5.13;;;3.95;;
62707;SDS011;48769;51.624;5.886;2022-10-16T05:00:04;6.97;;;3.60;;
62707;SDS011;48769;51.624;5.886;2022-10-16T05:02:30;7.70;;;3.40;;
62707;SDS011;48769;51.624;5.886;2022-10-16T05:04:55;5.22;;;3.03;;
62707;SDS011;48769;51.624;5.886;2022-10-16T05:07:20;7.50;;;3.03;;
62707;SDS011;48769;51.624;5.886;2022-10-16T05:09:46;6.13;;;3.22;;
62707;SDS011;48769;51.624;5.886;2022-10-16T05:12:11;7.13;;;3.50;;
62707;SDS011;48769;51.624;5.886;2022-10-16T05:14:36;5.38;;;3.25;;
62707;SDS011;48769;51.624;5.886;2022-10-16T05:17:02;4.90;;;3.15;;
62707;SDS011;48769;51.624;5.886;2022-10-16T05:19:27;5.10;;;3.28;;
62707;SDS011;48769;51.624;5.886;2022-10-16T05:21:52;6.50;;;3.45;;
62707;SDS011;48769;51.624;5.886;2022-10-16T05:24:18;8.75;;;3.70;;
62707;SDS011;48769;51.624;5.886;2022-10-16T05:26:43;7.05;;;3.40;;
62707;SDS011;48769;51.624;5.886;2022-10-16T05:29:08;5.40;;;3.25;;
62707;SDS011;48769;51.624;5.886;2022-10-16T05:31:34;4.63;;;3.35;;
62707;SDS011;48769;51.624;5.886;2022-10-16T05:33:59;8.35;;;3.75;;
62707;SDS011;48769;51.624;5.886;2022-10-16T05:36:25;5.80;;;3.58;;
62707;SDS011;48769;51.624;5.886;2022-10-16T05:38:51;6.47;;;3.15;;
62707;SDS011;48769;51.624;5.886;2022-10-16T05:41:16;5.85;;;3.40;;
62707;SDS011;48769;51.624;5.886;2022-10-16T05:43:46;4.65;;;3.17;;
62707;SDS011;48769;51.624;5.886;2022-10-16T05:46:14;4.90;;;3.33;;
62707;SDS011;48769;51.624;5.886;2022-10-16T05:48:40;11.05;;;3.75;;
62707;SDS011;48769;51.624;5.886;2022-10-16T05:51:08;9.27;;;3.83;;
62707;SDS011;48769;51.624;5.886;2022-10-16T05:53:36;6.85;;;3.90;;
62707;SDS011;48769;51.624;5.886;2022-10-16T05:56:03;5.95;;;4.05;;
62707;SDS011;48769;51.624;5.886;2022-10-16T05:58:30;7.55;;;3.38;;
62707;SDS011;48769;51.624;5.886;2022-10-16T06:00:59;4.85;;;3.85;;
62707;SDS011;48769;51.624;5.886;2022-10-16T06:03:26;6.53;;;3.42;;
62707;SDS011;48769;51.624;5.886;2022-10-16T06:05:52;5.78;;;3.55;;
62707;SDS011;48769;51.624;5.886;2022-10-16T06:08:18;4.32;;;3.35;;
62707;SDS011;48769;51.624;5.886;2022-10-16T06:10:44;4.95;;;2.95;;
62707;SDS011;48769;51.624;5.886;2022-10-16T06:13:10;9.65;;;4.10;;
62707;SDS011;48769;51.624;5.886;2022-10-16T06:15:37;8.30;;;3.67;;
62707;SDS011;48769;51.624;5.886;2022-10-16T06:18:04;8.73;;;3.25;;
62707;SDS011;48769;51.624;5.886;2022-10-16T06:20:29;9.38;;;4.00;;
62707;SDS011;48769;51.624;5.886;2022-10-16T06:22:55;5.97;;;3.55;;
62707;SDS011;48769;51.624;5.886;2022-10-16T06:25:20;9.13;;;3.88;;
62707;SDS011;48769;51.624;5.886;2022-10-16T06:27:45;11.77;;;3.60;;
62707;SDS011;48769;51.624;5.886;2022-10-16T06:30:10;8.75;;;3.80;;
62707;SDS011;48769;51.624;5.886;2022-10-16T06:32:36;10.10;;;3.80;;
62707;SDS011;48769;51.624;5.886;2022-10-16T06:35:01;6.05;;;3.53;;
62707;SDS011;48769;51.624;5.886;2022-10-16T06:37:27;9.75;;;3.90;;
62707;SDS011;48769;51.624;5.886;2022-10-16T06:39:52;4.13;;;3.28;;
62707;SDS011;48769;51.624;5.886;2022-10-16T06:42:18;5.72;;;3.25;;
62707;SDS011;48769;51.624;5.886;2022-10-16T06:44:44;11.90;;;3.45;;
62707;SDS011;48769;51.624;5.886;2022-10-16T06:47:09;4.18;;;3.70;;
62707;SDS011;48769;51.624;5.886;2022-10-16T06:49:35;7.22;;;3.50;;
62707;SDS011;48769;51.624;5.886;2022-10-16T06:52:00;7.55;;;3.25;;
62707;SDS011;48769;51.624;5.886;2022-10-16T06:54:26;5.38;;;3.42;;
62707;SDS011;48769;51.624;5.886;2022-10-16T06:56:52;8.85;;;3.65;;
62707;SDS011;48769;51.624;5.886;2022-10-16T06:59:19;8.98;;;4.13;;
62707;SDS011;48769;51.624;5.886;2022-10-16T07:01:45;8.93;;;3.30;;
62707;SDS011;48769;51.624;5.886;2022-10-16T07:04:10;7.53;;;3.55;;
62707;SDS011;48769;51.624;5.886;2022-10-16T07:06:35;5.88;;;3.70;;
62707;SDS011;48769;51.624;5.886;2022-10-16T07:09:02;8.25;;;3.65;;
62707;SDS011;48769;51.624;5.886;2022-10-16T07:11:30;6.50;;;4.38;;
62707;SDS011;48769;51.624;5.886;2022-10-16T07:13:55;6.97;;;3.60;;
62707;SDS011;48769;51.624;5.886;2022-10-16T07:16:21;4.18;;;3.17;;
62707;SDS011;48769;51.624;5.886;2022-10-16T07:18:51;4.22;;;3.05;;
62707;SDS011;48769;51.624;5.886;2022-10-16T07:21:22;5.97;;;2.92;;
62707;SDS011;48769;51.624;5.886;2022-10-16T07:23:51;6.20;;;2.22;;
62707;SDS011;48769;51.624;5.886;2022-10-16T07:26:16;3.80;;;2.00;;
62707;SDS011;48769;51.624;5.886;2022-10-16T07:28:43;4.82;;;2.00;;
62707;SDS011;48769;51.624;5.886;2022-10-16T07:31:09;7.25;;;2.47;;
62707;SDS011;48769;51.624;5.886;2022-10-16T07:33:38;4.13;;;1.60;;
62707;SDS011;48769;51.624;5.886;2022-10-16T07:36:04;5.18;;;2.28;;
62707;SDS011;48769;51.624;5.886;2022-10-16T07:38:30;4.22;;;2.10;;
62707;SDS011;48769;51.624;5.886;2022-10-16T07:40:57;3.63;;;1.80;;
62707;SDS011;48769;51.624;5.886;2022-10-16T07:43:23;4.05;;;2.13;;
62707;SDS011;48769;51.624;5.886;2022-10-16T07:45:49;5.25;;;2.17;;
62707;SDS011;48769;51.624;5.886;2022-10-16T07:48:15;3.65;;;1.95;;
62707;SDS011;48769;51.624;5.886;2022-10-16T07:50:46;3.25;;;2.30;;
62707;SDS011;48769;51.624;5.886;2022-10-16T07:53:11;4.20;;;1.75;;
62707;SDS011;48769;51.624;5.886;2022-10-16T07:55:37;4.63;;;1.90;;
62707;SDS011;48769;51.624;5.886;2022-10-16T07:58:02;5.70;;;1.83;;
62707;SDS011;48769;51.624;5.886;2022-10-16T08:00:29;4.82;;;1.50;;
62707;SDS011;48769;51.624;5.886;2022-10-16T08:02:54;4.13;;;1.73;;
62707;SDS011;48769;51.624;5.886;2022-10-16T08:05:24;5.22;;;2.08;;
62707;SDS011;48769;51.624;5.886;2022-10-16T08:07:50;2.65;;;1.65;;
62707;SDS011;48769;51.624;5.886;2022-10-16T08:10:16;7.47;;;1.75;;
62707;SDS011;48769;51.624;5.886;2022-10-16T08:12:43;5.88;;;1.90;;
62707;SDS011;48769;51.624;5.886;2022-10-16T08:15:08;5.70;;;1.73;;
62707;SDS011;48769;51.624;5.886;2022-10-16T08:17:34;5.88;;;2.10;;
62707;SDS011;48769;51.624;5.886;2022-10-16T08:20:00;5.50;;;2.00;;
62707;SDS011;48769;51.624;5.886;2022-10-16T08:22:25;6.45;;;1.80;;
62707;SDS011;48769;51.624;5.886;2022-10-16T08:24:51;6.28;;;2.00;;
62707;SDS011;48769;51.624;5.886;2022-10-16T08:27:16;4.70;;;1.30;;
62707;SDS011;48769;51.624;5.886;2022-10-16T08:29:41;2.53;;;1.67;;
62707;SDS011;48769;51.624;5.886;2022-10-16T08:32:06;6.40;;;2.05;;
62707;SDS011;48769;51.624;5.886;2022-10-16T08:34:32;7.47;;;1.60;;
62707;SDS011;48769;51.624;5.886;2022-10-16T08:36:57;7.38;;;2.05;;
62707;SDS011;48769;51.624;5.886;2022-10-16T08:39:22;6.60;;;2.50;;
62707;SDS011;48769;51.624;5.886;2022-10-16T08:45:01;4.10;;;2.10;;
62707;SDS011;48769;51.624;5.886;2022-10-16T08:49:58;6.73;;;1.77;;
62707;SDS011;48769;51.624;5.886;2022-10-16T08:52:29;4.25;;;1.85;;
62707;SDS011;48769;51.624;5.886;2022-10-16T08:54:57;5.18;;;1.85;;
62707;SDS011;48769;51.624;5.886;2022-10-16T08:57:24;7.57;;;2.47;;
62707;SDS011;48769;51.624;5.886;2022-10-16T08:59:52;8.00;;;2.10;;
62707;SDS011;48769;51.624;5.886;2022-10-16T09:02:32;4.88;;;2.05;;
62707;SDS011;48769;51.624;5.886;2022-10-16T09:05:07;4.45;;;1.92;;
62707;SDS011;48769;51.624;5.886;2022-10-16T09:07:59;4.63;;;1.77;;
62707;SDS011;48769;51.624;5.886;2022-10-16T09:13:21;3.92;;;2.03;;
62707;SDS011;48769;51.624;5.886;2022-10-16T09:16:01;8.80;;;2.58;;
62707;SDS011;48769;51.624;5.886;2022-10-16T09:19:00;5.38;;;2.28;;
62707;SDS011;48769;51.624;5.886;2022-10-16T09:21:40;4.97;;;2.08;;
62707;SDS011;48769;51.624;5.886;2022-10-16T09:24:16;6.40;;;2.05;;
62707;SDS011;48769;51.624;5.886;2022-10-16T09:26:43;8.55;;;2.13;;
62707;SDS011;48769;51.624;5.886;2022-10-16T09:29:13;6.03;;;1.60;;
62707;SDS011;48769;51.624;5.886;2022-10-16T09:31:40;5.13;;;2.05;;
62707;SDS011;48769;51.624;5.886;2022-10-16T09:37:04;5.28;;;2.00;;
62707;SDS011;48769;51.624;5.886;2022-10-16T09:39:51;5.95;;;2.15;;
62707;SDS011;48769;51.624;5.886;2022-10-16T09:42:28;7.85;;;2.00;;
62707;SDS011;48769;51.624;5.886;2022-10-16T09:44:57;8.07;;;1.90;;
62707;SDS011;48769;51.624;5.886;2022-10-16T09:47:23;7.57;;;2.15;;
62707;SDS011;48769;51.624;5.886;2022-10-16T09:49:58;9.23;;;2.35;;
62707;SDS011;48769;51.624;5.886;2022-10-16T09:52:27;10.55;;;2.20;;
62707;SDS011;48769;51.624;5.886;2022-10-16T09:54:55;4.65;;;1.60;;
62707;SDS011;48769;51.624;5.886;2022-10-16T10:00:30;6.13;;;1.75;;
62707;SDS011;48769;51.624;5.886;2022-10-16T10:02:55;6.68;;;2.08;;
62707;SDS011;48769;51.624;5.886;2022-10-16T10:05:25;10.63;;;2.17;;
62707;SDS011;48769;51.624;5.886;2022-10-16T10:07:56;8.45;;;1.98;;
62707;SDS011;48769;51.624;5.886;2022-10-16T10:10:49;11.80;;;2.67;;
62707;SDS011;48769;51.624;5.886;2022-10-16T10:13:24;6.57;;;1.80;;
62707;SDS011;48769;51.624;5.886;2022-10-16T10:15:51;12.30;;;2.50;;
62707;SDS011;48769;51.624;5.886;2022-10-16T10:18:19;12.18;;;2.40;;
62707;SDS011;48769;51.624;5.886;2022-10-16T10:20:46;15.65;;;2.55;;
62707;SDS011;48769;51.624;5.886;2022-10-16T10:23:23;13.05;;;2.28;;
62707;SDS011;48769;51.624;5.886;2022-10-16T10:37:05;14.93;;;2.40;;
62707;SDS011;48769;51.624;5.886;2022-10-16T10:39:47;10.50;;;2.05;;
62707;SDS011;48769;51.624;5.886;2022-10-16T10:42:58;10.98;;;2.60;;
62707;SDS011;48769;51.624;5.886;2022-10-16T10:51:20;6.97;;;1.85;;
62707;SDS011;48769;51.624;5.886;2022-10-16T10:57:02;11.18;;;2.35;;
62707;SDS011;48769;51.624;5.886;2022-10-16T11:07:53;13.65;;;2.45;;
62707;SDS011;48769;51.624;5.886;2022-10-16T11:16:28;10.50;;;2.28;;
62707;SDS011;48769;51.624;5.886;2022-10-16T11:21:51;10.55;;;2.38;;
62707;SDS011;48769;51.624;5.886;2022-10-16T11:24:30;12.35;;;2.22;;
62707;SDS011;48769;51.624;5.886;2022-10-16T11:27:07;15.07;;;3.13;;
62707;SDS011;48769;51.624;5.886;2022-10-16T11:29:35;12.80;;;3.75;;
62707;SDS011;48769;51.624;5.886;2022-10-16T11:32:13;20.85;;;2.80;;
62707;SDS011;48769;51.624;5.886;2022-10-16T11:34:48;14.48;;;2.10;;
62707;SDS011;48769;51.624;5.886;2022-10-16T11:37:19;11.80;;;2.42;;
62707;SDS011;48769;51.624;5.886;2022-10-16T11:39:48;14.05;;;2.03;;
62707;SDS011;48769;51.624;5.886;2022-10-16T11:42:19;10.15;;;1.95;;
62707;SDS011;48769;51.624;5.886;2022-10-16T11:44:57;10.00;;;2.47;;
62707;SDS011;48769;51.624;5.886;2022-10-16T11:47:40;12.68;;;2.92;;
62707;SDS011;48769;51.624;5.886;2022-10-16T11:50:23;11.57;;;2.03;;
62707;SDS011;48769;51.624;5.886;2022-10-16T11:52:55;10.00;;;2.00;;
62707;SDS011;48769;51.624;5.886;2022-10-16T11:55:42;12.35;;;2.15;;
62707;SDS011;48769;51.624;5.886;2022-10-16T12:03:39;13.43;;;2.63;;
62707;SDS011;48769;51.624;5.886;2022-10-16T12:08:53;12.20;;;2.22;;
62707;SDS011;48769;51.624;5.886;2022-10-16T12:13:51;8.70;;;2.33;;
62707;SDS011;48769;51.624;5.886;2022-10-16T12:18:45;11.57;;;1.88;;
62707;SDS011;48769;51.624;5.886;2022-10-16T12:21:12;11.45;;;2.38;;
62707;SDS011;48769;51.624;5.886;2022-10-16T12:26:29;10.50;;;2.60;;
62707;SDS011;48769;51.624;5.886;2022-10-16T12:29:11;15.70;;;2.97;;
62707;SDS011;48769;51.624;5.886;2022-10-16T12:31:42;8.27;;;1.90;;
62707;SDS011;48769;51.624;5.886;2022-10-16T12:34:23;10.27;;;1.98;;
62707;SDS011;48769;51.624;5.886;2022-10-16T12:36:54;9.38;;;1.60;;
62707;SDS011;48769;51.624;5.886;2022-10-16T12:39:24;7.30;;;1.83;;
62707;SDS011;48769;51.624;5.886;2022-10-16T12:44:53;8.07;;;1.50;;
62707;SDS011;48769;51.624;5.886;2022-10-16T12:47:23;11.13;;;1.58;;
62707;SDS011;48769;51.624;5.886;2022-10-16T12:49:53;6.03;;;1.65;;
62707;SDS011;48769;51.624;5.886;2022-10-16T12:52:26;5.75;;;1.35;;
62707;SDS011;48769;51.624;5.886;2022-10-16T12:54:58;5.78;;;1.50;;
62707;SDS011;48769;51.624;5.886;2022-10-16T13:00:45;8.27;;;1.85;;
62707;SDS011;48769;51.624;5.886;2022-10-16T13:06:26;5.90;;;1.52;;
62707;SDS011;48769;51.624;5.886;2022-10-16T13:21:51;9.93;;;1.90;;
62707;SDS011;48769;51.624;5.886;2022-10-16T13:24:35;2.97;;;1.13;;
62707;SDS011;48769;51.624;5.886;2022-10-16T13:27:28;11.10;;;1.70;;
62707;SDS011;48769;51.624;5.886;2022-10-16T13:30:11;8.82;;;1.80;;
62707;SDS011;48769;51.624;5.886;2022-10-16T13:32:43;6.80;;;1.75;;
62707;SDS011;48769;51.624;5.886;2022-10-16T13:35:18;6.72;;;1.52;;
62707;SDS011;48769;51.624;5.886;2022-10-16T13:37:45;6.30;;;1.83;;
62707;SDS011;48769;51.624;5.886;2022-10-16T13:40:21;7.30;;;1.23;;
62707;SDS011;48769;51.624;5.886;2022-10-16T13:42:48;8.10;;;1.45;;
62707;SDS011;48769;51.624;5.886;2022-10-16T13:45:21;6.70;;;1.73;;
62707;SDS011;48769;51.624;5.886;2022-10-16T13:47:47;10.50;;;1.90;;
62707;SDS011;48769;51.624;5.886;2022-10-16T13:50:15;7.80;;;1.58;;
62707;SDS011;48769;51.624;5.886;2022-10-16T13:52:42;7.65;;;1.33;;
62707;SDS011;48769;51.624;5.886;2022-10-16T13:55:15;7.43;;;1.45;;
62707;SDS011;48769;51.624;5.886;2022-10-16T13:57:42;7.32;;;1.65;;
62707;SDS011;48769;51.624;5.886;2022-10-16T14:00:21;7.22;;;1.38;;
62707;SDS011;48769;51.624;5.886;2022-10-16T14:03:11;4.75;;;1.10;;
62707;SDS011;48769;51.624;5.886;2022-10-16T14:05:55;7.38;;;1.85;;
62707;SDS011;48769;51.624;5.886;2022-10-16T14:08:23;5.93;;;1.60;;
62707;SDS011;48769;51.624;5.886;2022-10-16T14:10:51;8.43;;;1.65;;
62707;SDS011;48769;51.624;5.886;2022-10-16T14:13:19;5.53;;;1.25;;
62707;SDS011;48769;51.624;5.886;2022-10-16T14:18:21;5.78;;;1.27;;
62707;SDS011;48769;51.624;5.886;2022-10-16T14:20:49;4.88;;;1.38;;
62707;SDS011;48769;51.624;5.886;2022-10-16T14:23:23;7.53;;;1.30;;
62707;SDS011;48769;51.624;5.886;2022-10-16T14:25:54;5.95;;;1.50;;
62707;SDS011;48769;51.624;5.886;2022-10-16T14:28:31;4.10;;;1.65;;
62707;SDS011;48769;51.624;5.886;2022-10-16T14:30:58;7.43;;;1.73;;
62707;SDS011;48769;51.624;5.886;2022-10-16T14:36:12;6.68;;;1.38;;
62707;SDS011;48769;51.624;5.886;2022-10-16T14:38:40;5.85;;;1.90;;
62707;SDS011;48769;51.624;5.886;2022-10-16T14:41:08;9.27;;;1.48;;
62707;SDS011;48769;51.624;5.886;2022-10-16T14:43:37;4.43;;;1.30;;
62707;SDS011;48769;51.624;5.886;2022-10-16T14:46:16;5.93;;;1.65;;
62707;SDS011;48769;51.624;5.886;2022-10-16T14:48:54;9.38;;;2.15;;
62707;SDS011;48769;51.624;5.886;2022-10-16T14:51:29;8.45;;;1.60;;
62707;SDS011;48769;51.624;5.886;2022-10-16T14:53:55;5.57;;;1.67;;
62707;SDS011;48769;51.624;5.886;2022-10-16T14:56:24;6.05;;;1.58;;
62707;SDS011;48769;51.624;5.886;2022-10-16T14:58:54;12.65;;;2.53;;
62707;SDS011;48769;51.624;5.886;2022-10-16T15:01:20;9.32;;;1.80;;
62707;SDS011;48769;51.624;5.886;2022-10-16T15:03:46;6.95;;;2.13;;
62707;SDS011;48769;51.624;5.886;2022-10-16T15:06:12;7.53;;;2.38;;
62707;SDS011;48769;51.624;5.886;2022-10-16T15:08:39;5.50;;;1.50;;
62707;SDS011;48769;51.624;5.886;2022-10-16T15:11:05;8.10;;;1.70;;
62707;SDS011;48769;51.624;5.886;2022-10-16T15:13:41;6.18;;;1.80;;
62707;SDS011;48769;51.624;5.886;2022-10-16T15:16:13;4.63;;;1.65;;
62707;SDS011;48769;51.624;5.886;2022-10-16T15:18:41;5.70;;;1.60;;
62707;SDS011;48769;51.624;5.886;2022-10-16T15:21:06;10.68;;;2.05;;
62707;SDS011;48769;51.624;5.886;2022-10-16T15:23:31;8.95;;;1.98;;
62707;SDS011;48769;51.624;5.886;2022-10-16T15:25:57;7.55;;;1.58;;
62707;SDS011;48769;51.624;5.886;2022-10-16T15:28:23;5.43;;;1.20;;
62707;SDS011;48769;51.624;5.886;2022-10-16T15:30:51;6.30;;;1.73;;
62707;SDS011;48769;51.624;5.886;2022-10-16T15:33:19;7.32;;;2.10;;
62707;SDS011;48769;51.624;5.886;2022-10-16T15:35:50;8.07;;;2.05;;
62707;SDS011;48769;51.624;5.886;2022-10-16T15:38:17;10.00;;;1.42;;
62707;SDS011;48769;51.624;5.886;2022-10-16T15:40:47;8.18;;;1.88;;
62707;SDS011;48769;51.624;5.886;2022-10-16T15:43:13;4.78;;;2.03;;
62707;SDS011;48769;51.624;5.886;2022-10-16T15:45:39;7.75;;;1.92;;
62707;SDS011;48769;51.624;5.886;2022-10-16T15:48:05;6.93;;;1.40;;
62707;SDS011;48769;51.624;5.886;2022-10-16T15:50:31;5.65;;;1.85;;
62707;SDS011;48769;51.624;5.886;2022-10-16T15:52:57;6.65;;;1.60;;
62707;SDS011;48769;51.624;5.886;2022-10-16T15:55:22;9.82;;;1.88;;
62707;SDS011;48769;51.624;5.886;2022-10-16T15:57:48;2.67;;;1.40;;
62707;SDS011;48769;51.624;5.886;2022-10-16T16:00:14;3.13;;;1.15;;
62707;SDS011;48769;51.624;5.886;2022-10-16T16:02:42;5.07;;;1.70;;
62707;SDS011;48769;51.624;5.886;2022-10-16T16:05:09;6.70;;;1.50;;
62707;SDS011;48769;51.624;5.886;2022-10-16T16:07:37;7.25;;;1.90;;
62707;SDS011;48769;51.624;5.886;2022-10-16T16:10:04;6.97;;;1.65;;
62707;SDS011;48769;51.624;5.886;2022-10-16T16:12:32;4.30;;;1.55;;
62707;SDS011;48769;51.624;5.886;2022-10-16T16:14:57;4.95;;;1.88;;
62707;SDS011;48769;51.624;5.886;2022-10-16T16:17:23;7.45;;;1.88;;
62707;SDS011;48769;51.624;5.886;2022-10-16T16:19:49;5.47;;;1.80;;
62707;SDS011;48769;51.624;5.886;2022-10-16T16:22:14;4.72;;;1.80;;
62707;SDS011;48769;51.624;5.886;2022-10-16T16:24:40;6.32;;;1.70;;
62707;SDS011;48769;51.624;5.886;2022-10-16T16:27:05;6.07;;;2.13;;
62707;SDS011;48769;51.624;5.886;2022-10-16T16:29:31;4.13;;;1.48;;
62707;SDS011;48769;51.624;5.886;2022-10-16T16:31:57;6.65;;;2.10;;
62707;SDS011;48769;51.624;5.886;2022-10-16T16:34:24;7.20;;;2.15;;
62707;SDS011;48769;51.624;5.886;2022-10-16T16:36:51;4.10;;;1.88;;
62707;SDS011;48769;51.624;5.886;2022-10-16T16:39:16;7.13;;;2.03;;
62707;SDS011;48769;51.624;5.886;2022-10-16T16:41:42;7.40;;;2.17;;
62707;SDS011;48769;51.624;5.886;2022-10-16T16:44:08;6.07;;;2.38;;
62707;SDS011;48769;51.624;5.886;2022-10-16T16:46:35;10.60;;;2.78;;
62707;SDS011;48769;51.624;5.886;2022-10-16T16:49:01;8.90;;;2.67;;